sensor_id;sensor_type;location;lat;lon;timestamp;P1;durP1;ratioP1;P2;durP2;ratioP2
54555;SDS011;57291;37.520;15.106;2023-05-02T00:01:29;19.05;;;9.80;;
54555;SDS011;57291;37.520;15.106;2023-05-02T00:03:57;22.08;;;10.18;;
54555;SDS011;57291;37.520;15.106;2023-05-02T00:06:24;21.65;;;10.43;;
54555;SDS011;57291;37.520;15.106;2023-05-02T00:08:52;18.08;;;10.10;;
54555;SDS011;57291;37.520;15.106;2023-05-02T00:11:19;24.73;;;10.25;;
54555;SDS011;57291;37.520;15.106;2023-05-02T00:13:46;25.23;;;10.85;;
54555;SDS011;57291;37.520;15.106;2023-05-02T00:16:14;20.10;;;11.88;;
54555;SDS011;57291;37.520;15.106;2023-05-02T00:18:41;20.55;;;11.45;;
54555;SDS011;57291;37.520;15.106;2023-05-02T00:21:08;27.55;;;11.00;;
54555;SDS011;57291;37.520;15.106;2023-05-02T00:23:35;19.75;;;10.75;;
54555;SDS011;57291;37.520;15.106;2023-05-02T00:26:02;20.70;;;10.00;;
54555;SDS011;57291;37.520;15.106;2023-05-02T00:28:38;20.90;;;9.55;;
54555;SDS011;57291;37.520;15.106;2023-05-02T00:31:05;21.13;;;10.38;;
54555;SDS011;57291;37.520;15.106;2023-05-02T00:33:33;21.10;;;10.13;;
54555;SDS011;57291;37.520;15.106;2023-05-02T00:36:00;17.83;;;10.20;;
54555;SDS011;57291;37.520;15.106;2023-05-02T00:38:27;17.95;;;9.70;;
54555;SDS011;57291;37.520;15.106;2023-05-02T00:40:54;19.92;;;10.30;;
54555;SDS011;57291;37.520;15.106;2023-05-02T00:43:21;22.50;;;10.05;;
54555;SDS011;57291;37.520;15.106;2023-05-02T00:45:48;16.08;;;9.95;;
54555;SDS011;57291;37.520;15.106;2023-05-02T00:48:16;24.98;;;10.63;;
54555;SDS011;57291;37.520;15.106;2023-05-02T00:50:46;30.25;;;9.80;;
54555;SDS011;57291;37.520;15.106;2023-05-02T00:53:13;19.58;;;10.32;;
54555;SDS011;57291;37.520;15.106;2023-05-02T00:55:40;23.60;;;9.30;;
54555;SDS011;57291;37.520;15.106;2023-05-02T00:58:11;16.75;;;8.10;;
54555;SDS011;57291;37.520;15.106;2023-05-02T01:00:44;17.77;;;8.25;;
54555;SDS011;57291;37.520;15.106;2023-05-02T01:08:59;18.08;;;9.45;;
54555;SDS011;57291;37.520;15.106;2023-05-02T01:11:43;16.95;;;9.00;;
54555;SDS011;57291;37.520;15.106;2023-05-02T01:14:17;22.98;;;9.50;;
54555;SDS011;57291;37.520;15.106;2023-05-02T01:16:46;23.35;;;10.45;;
54555;SDS011;57291;37.520;15.106;2023-05-02T01:19:18;17.42;;;9.13;;
54555;SDS011;57291;37.520;15.106;2023-05-02T01:21:52;22.63;;;9.52;;
54555;SDS011;57291;37.520;15.106;2023-05-02T01:24:24;17.42;;;8.57;;
54555;SDS011;57291;37.520;15.106;2023-05-02T01:27:13;22.77;;;8.85;;
54555;SDS011;57291;37.520;15.106;2023-05-02T01:29:48;21.88;;;9.65;;
54555;SDS011;57291;37.520;15.106;2023-05-02T01:32:17;20.90;;;9.85;;
54555;SDS011;57291;37.520;15.106;2023-05-02T01:34:47;24.27;;;10.07;;
54555;SDS011;57291;37.520;15.106;2023-05-02T01:37:18;22.48;;;10.15;;
54555;SDS011;57291;37.520;15.106;2023-05-02T01:39:47;20.85;;;9.25;;
54555;SDS011;57291;37.520;15.106;2023-05-02T01:42:16;19.63;;;10.38;;
54555;SDS011;57291;37.520;15.106;2023-05-02T01:44:46;27.08;;;11.15;;
54555;SDS011;57291;37.520;15.106;2023-05-02T01:47:14;19.92;;;10.73;;
54555;SDS011;57291;37.520;15.106;2023-05-02T01:49:43;18.02;;;10.88;;
54555;SDS011;57291;37.520;15.106;2023-05-02T01:52:11;17.25;;;9.10;;
54555;SDS011;57291;37.520;15.106;2023-05-02T01:54:41;19.55;;;9.00;;
54555;SDS011;57291;37.520;15.106;2023-05-02T01:57:09;20.23;;;10.10;;
54555;SDS011;57291;37.520;15.106;2023-05-02T01:59:38;14.32;;;8.93;;
54555;SDS011;57291;37.520;15.106;2023-05-02T02:02:07;19.33;;;8.95;;
54555;SDS011;57291;37.520;15.106;2023-05-02T02:04:37;17.00;;;9.13;;
54555;SDS011;57291;37.520;15.106;2023-05-02T02:07:08;18.25;;;9.77;;
54555;SDS011;57291;37.520;15.106;2023-05-02T02:09:38;20.63;;;10.40;;
54555;SDS011;57291;37.520;15.106;2023-05-02T02:15:18;28.98;;;12.30;;
54555;SDS011;57291;37.520;15.106;2023-05-02T02:17:42;22.02;;;11.07;;
54555;SDS011;57291;37.520;15.106;2023-05-02T02:20:15;19.65;;;9.07;;
54555;SDS011;57291;37.520;15.106;2023-05-02T02:22:43;18.88;;;9.50;;
54555;SDS011;57291;37.520;15.106;2023-05-02T02:25:12;23.15;;;10.15;;
54555;SDS011;57291;37.520;15.106;2023-05-02T02:27:41;26.60;;;10.00;;
54555;SDS011;57291;37.520;15.106;2023-05-02T02:30:09;28.27;;;10.70;;
54555;SDS011;57291;37.520;15.106;2023-05-02T02:32:37;32.25;;;12.32;;
54555;SDS011;57291;37.520;15.106;2023-05-02T02:35:04;26.90;;;10.65;;
54555;SDS011;57291;37.520;15.106;2023-05-02T02:48:36;23.92;;;12.73;;
54555;SDS011;57291;37.520;15.106;2023-05-02T02:51:08;33.15;;;13.48;;
54555;SDS011;57291;37.520;15.106;2023-05-02T02:56:21;25.05;;;12.93;;
54555;SDS011;57291;37.520;15.106;2023-05-02T02:58:56;31.70;;;13.52;;
54555;SDS011;57291;37.520;15.106;2023-05-02T03:01:29;30.20;;;10.95;;
54555;SDS011;57291;37.520;15.106;2023-05-02T03:03:58;28.50;;;11.13;;
54555;SDS011;57291;37.520;15.106;2023-05-02T03:06:30;22.70;;;11.20;;
54555;SDS011;57291;37.520;15.106;2023-05-02T03:08:57;27.67;;;12.65;;
54555;SDS011;57291;37.520;15.106;2023-05-02T03:11:28;23.17;;;10.85;;
54555;SDS011;57291;37.520;15.106;2023-05-02T03:13:56;24.52;;;13.43;;
54555;SDS011;57291;37.520;15.106;2023-05-02T03:16:34;29.95;;;12.73;;
54555;SDS011;57291;37.520;15.106;2023-05-02T03:19:07;27.13;;;11.98;;
54555;SDS011;57291;37.520;15.106;2023-05-02T03:21:34;25.23;;;12.57;;
54555;SDS011;57291;37.520;15.106;2023-05-02T03:24:08;28.40;;;13.50;;
54555;SDS011;57291;37.520;15.106;2023-05-02T03:26:36;26.45;;;12.48;;
54555;SDS011;57291;37.520;15.106;2023-05-02T03:29:05;28.80;;;10.90;;
54555;SDS011;57291;37.520;15.106;2023-05-02T03:31:37;27.00;;;12.05;;
54555;SDS011;57291;37.520;15.106;2023-05-02T03:34:04;29.58;;;12.52;;
54555;SDS011;57291;37.520;15.106;2023-05-02T03:36:34;23.15;;;11.57;;
54555;SDS011;57291;37.520;15.106;2023-05-02T03:39:01;28.77;;;12.70;;
54555;SDS011;57291;37.520;15.106;2023-05-02T03:41:28;30.95;;;11.70;;
54555;SDS011;57291;37.520;15.106;2023-05-02T03:44:02;26.73;;;13.07;;
54555;SDS011;57291;37.520;15.106;2023-05-02T03:46:30;20.88;;;11.52;;
54555;SDS011;57291;37.520;15.106;2023-05-02T03:48:57;27.42;;;13.88;;
54555;SDS011;57291;37.520;15.106;2023-05-02T03:51:24;26.42;;;12.60;;
54555;SDS011;57291;37.520;15.106;2023-05-02T03:53:54;26.85;;;12.88;;
54555;SDS011;57291;37.520;15.106;2023-05-02T03:56:22;26.42;;;12.48;;
54555;SDS011;57291;37.520;15.106;2023-05-02T03:59:00;28.25;;;13.45;;
54555;SDS011;57291;37.520;15.106;2023-05-02T04:01:27;34.70;;;13.05;;
54555;SDS011;57291;37.520;15.106;2023-05-02T04:03:56;30.70;;;11.75;;
54555;SDS011;57291;37.520;15.106;2023-05-02T04:06:25;26.95;;;11.68;;
54555;SDS011;57291;37.520;15.106;2023-05-02T04:08:57;22.85;;;11.13;;
54555;SDS011;57291;37.520;15.106;2023-05-02T04:11:31;31.00;;;11.80;;
54555;SDS011;57291;37.520;15.106;2023-05-02T04:14:01;27.73;;;11.27;;
54555;SDS011;57291;37.520;15.106;2023-05-02T04:16:28;27.60;;;11.02;;
54555;SDS011;57291;37.520;15.106;2023-05-02T04:18:56;22.17;;;11.27;;
54555;SDS011;57291;37.520;15.106;2023-05-02T04:21:24;23.10;;;11.55;;
54555;SDS011;57291;37.520;15.106;2023-05-02T04:23:51;29.17;;;11.57;;
54555;SDS011;57291;37.520;15.106;2023-05-02T04:26:18;25.85;;;11.35;;
54555;SDS011;57291;37.520;15.106;2023-05-02T04:28:52;23.45;;;12.00;;
54555;SDS011;57291;37.520;15.106;2023-05-02T04:31:19;27.40;;;13.10;;
54555;SDS011;57291;37.520;15.106;2023-05-02T04:33:47;29.83;;;12.45;;
54555;SDS011;57291;37.520;15.106;2023-05-02T04:36:23;22.98;;;12.95;;
54555;SDS011;57291;37.520;15.106;2023-05-02T04:38:51;31.92;;;13.05;;
54555;SDS011;57291;37.520;15.106;2023-05-02T04:41:19;30.13;;;13.60;;
54555;SDS011;57291;37.520;15.106;2023-05-02T04:43:53;28.63;;;10.88;;
54555;SDS011;57291;37.520;15.106;2023-05-02T04:46:21;36.53;;;12.40;;
54555;SDS011;57291;37.520;15.106;2023-05-02T04:48:48;29.63;;;12.15;;
54555;SDS011;57291;37.520;15.106;2023-05-02T04:51:16;34.33;;;11.60;;
54555;SDS011;57291;37.520;15.106;2023-05-02T04:53:46;32.65;;;11.68;;
54555;SDS011;57291;37.520;15.106;2023-05-02T04:56:13;19.67;;;10.02;;
54555;SDS011;57291;37.520;15.106;2023-05-02T04:58:41;24.77;;;10.82;;
54555;SDS011;57291;37.520;15.106;2023-05-02T05:01:10;27.15;;;11.00;;
54555;SDS011;57291;37.520;15.106;2023-05-02T05:03:38;25.33;;;10.98;;
54555;SDS011;57291;37.520;15.106;2023-05-02T05:06:06;21.40;;;10.25;;
54555;SDS011;57291;37.520;15.106;2023-05-02T05:08:34;19.58;;;9.00;;
54555;SDS011;57291;37.520;15.106;2023-05-02T05:11:02;20.23;;;8.52;;
54555;SDS011;57291;37.520;15.106;2023-05-02T05:13:31;27.70;;;10.30;;
54555;SDS011;57291;37.520;15.106;2023-05-02T05:15:58;21.42;;;9.52;;
54555;SDS011;57291;37.520;15.106;2023-05-02T05:18:29;21.92;;;9.27;;
54555;SDS011;57291;37.520;15.106;2023-05-02T05:20:57;18.88;;;9.07;;
54555;SDS011;57291;37.520;15.106;2023-05-02T05:23:24;19.23;;;8.00;;
54555;SDS011;57291;37.520;15.106;2023-05-02T05:25:51;24.23;;;10.68;;
54555;SDS011;57291;37.520;15.106;2023-05-02T05:28:18;23.10;;;10.55;;
54555;SDS011;57291;37.520;15.106;2023-05-02T05:30:46;20.05;;;10.85;;
54555;SDS011;57291;37.520;15.106;2023-05-02T05:33:17;21.35;;;10.82;;
54555;SDS011;57291;37.520;15.106;2023-05-02T05:35:45;24.70;;;9.73;;
54555;SDS011;57291;37.520;15.106;2023-05-02T05:38:12;29.67;;;9.73;;
54555;SDS011;57291;37.520;15.106;2023-05-02T05:40:42;21.02;;;9.68;;
54555;SDS011;57291;37.520;15.106;2023-05-02T05:43:10;31.58;;;10.60;;
54555;SDS011;57291;37.520;15.106;2023-05-02T05:45:38;35.42;;;10.52;;
54555;SDS011;57291;37.520;15.106;2023-05-02T05:48:05;26.95;;;10.90;;
54555;SDS011;57291;37.520;15.106;2023-05-02T05:50:39;35.30;;;10.13;;
54555;SDS011;57291;37.520;15.106;2023-05-02T05:53:06;35.60;;;11.30;;
54555;SDS011;57291;37.520;15.106;2023-05-02T05:55:35;29.30;;;10.43;;
54555;SDS011;57291;37.520;15.106;2023-05-02T05:58:07;22.95;;;13.05;;
54555;SDS011;57291;37.520;15.106;2023-05-02T06:00:36;36.70;;;14.35;;
54555;SDS011;57291;37.520;15.106;2023-05-02T06:03:04;28.77;;;12.35;;
54555;SDS011;57291;37.520;15.106;2023-05-02T06:05:36;27.77;;;13.95;;
54555;SDS011;57291;37.520;15.106;2023-05-02T06:08:03;31.33;;;13.50;;
54555;SDS011;57291;37.520;15.106;2023-05-02T06:10:31;25.25;;;12.65;;
54555;SDS011;57291;37.520;15.106;2023-05-02T06:12:58;27.50;;;12.55;;
54555;SDS011;57291;37.520;15.106;2023-05-02T06:15:32;28.33;;;12.70;;
54555;SDS011;57291;37.520;15.106;2023-05-02T06:18:02;29.42;;;14.82;;
54555;SDS011;57291;37.520;15.106;2023-05-02T06:20:30;41.42;;;16.73;;
54555;SDS011;57291;37.520;15.106;2023-05-02T06:22:57;30.58;;;14.43;;
54555;SDS011;57291;37.520;15.106;2023-05-02T06:25:24;30.35;;;15.65;;
54555;SDS011;57291;37.520;15.106;2023-05-02T06:27:51;32.85;;;17.05;;
54555;SDS011;57291;37.520;15.106;2023-05-02T06:30:18;26.48;;;13.50;;
54555;SDS011;57291;37.520;15.106;2023-05-02T06:32:46;31.10;;;14.05;;
54555;SDS011;57291;37.520;15.106;2023-05-02T06:35:13;26.85;;;14.25;;
54555;SDS011;57291;37.520;15.106;2023-05-02T06:37:40;30.25;;;13.60;;
54555;SDS011;57291;37.520;15.106;2023-05-02T06:40:08;32.03;;;14.27;;
54555;SDS011;57291;37.520;15.106;2023-05-02T06:42:35;28.52;;;13.75;;
54555;SDS011;57291;37.520;15.106;2023-05-02T06:45:02;31.58;;;13.43;;
54555;SDS011;57291;37.520;15.106;2023-05-02T06:47:30;25.58;;;13.68;;
54555;SDS011;57291;37.520;15.106;2023-05-02T06:49:58;32.80;;;15.60;;
54555;SDS011;57291;37.520;15.106;2023-05-02T06:52:26;37.33;;;16.05;;
54555;SDS011;57291;37.520;15.106;2023-05-02T06:54:55;32.00;;;14.95;;
54555;SDS011;57291;37.520;15.106;2023-05-02T06:57:23;36.05;;;15.73;;
54555;SDS011;57291;37.520;15.106;2023-05-02T06:59:50;35.53;;;14.75;;
54555;SDS011;57291;37.520;15.106;2023-05-02T07:02:17;30.25;;;14.43;;
54555;SDS011;57291;37.520;15.106;2023-05-02T07:04:44;36.58;;;15.35;;
54555;SDS011;57291;37.520;15.106;2023-05-02T07:07:12;34.78;;;15.35;;
54555;SDS011;57291;37.520;15.106;2023-05-02T07:09:42;38.88;;;15.73;;
54555;SDS011;57291;37.520;15.106;2023-05-02T07:12:09;28.95;;;14.30;;
54555;SDS011;57291;37.520;15.106;2023-05-02T07:14:36;36.40;;;15.32;;
54555;SDS011;57291;37.520;15.106;2023-05-02T07:17:03;32.78;;;13.85;;
54555;SDS011;57291;37.520;15.106;2023-05-02T07:19:30;33.00;;;15.48;;
54555;SDS011;57291;37.520;15.106;2023-05-02T07:21:58;35.05;;;16.17;;
54555;SDS011;57291;37.520;15.106;2023-05-02T07:24:25;35.70;;;14.45;;
54555;SDS011;57291;37.520;15.106;2023-05-02T07:26:52;27.63;;;12.32;;
54555;SDS011;57291;37.520;15.106;2023-05-02T07:29:19;27.02;;;10.18;;
54555;SDS011;57291;37.520;15.106;2023-05-02T07:31:46;23.55;;;10.85;;
54555;SDS011;57291;37.520;15.106;2023-05-02T07:34:14;25.23;;;11.07;;
54555;SDS011;57291;37.520;15.106;2023-05-02T07:36:41;22.48;;;9.40;;
54555;SDS011;57291;37.520;15.106;2023-05-02T07:39:08;20.52;;;9.65;;
54555;SDS011;57291;37.520;15.106;2023-05-02T07:41:35;20.27;;;8.90;;
54555;SDS011;57291;37.520;15.106;2023-05-02T07:44:02;29.85;;;9.05;;
54555;SDS011;57291;37.520;15.106;2023-05-02T07:46:30;27.60;;;8.68;;
54555;SDS011;57291;37.520;15.106;2023-05-02T07:48:57;23.52;;;8.95;;
54555;SDS011;57291;37.520;15.106;2023-05-02T07:51:24;20.40;;;9.45;;
54555;SDS011;57291;37.520;15.106;2023-05-02T07:53:52;22.08;;;9.93;;
54555;SDS011;57291;37.520;15.106;2023-05-02T07:56:21;23.35;;;8.95;;
54555;SDS011;57291;37.520;15.106;2023-05-02T07:58:48;19.40;;;7.85;;
54555;SDS011;57291;37.520;15.106;2023-05-02T08:01:17;21.98;;;8.05;;
54555;SDS011;57291;37.520;15.106;2023-05-02T08:03:44;22.88;;;7.93;;
54555;SDS011;57291;37.520;15.106;2023-05-02T08:06:12;22.40;;;8.63;;
54555;SDS011;57291;37.520;15.106;2023-05-02T08:08:40;19.58;;;8.02;;
54555;SDS011;57291;37.520;15.106;2023-05-02T08:11:07;19.50;;;8.48;;
54555;SDS011;57291;37.520;15.106;2023-05-02T08:13:34;15.60;;;7.68;;
54555;SDS011;57291;37.520;15.106;2023-05-02T08:16:01;22.98;;;7.75;;
54555;SDS011;57291;37.520;15.106;2023-05-02T08:18:28;20.98;;;7.80;;
54555;SDS011;57291;37.520;15.106;2023-05-02T08:20:55;20.17;;;7.32;;
54555;SDS011;57291;37.520;15.106;2023-05-02T08:23:24;21.17;;;7.80;;
54555;SDS011;57291;37.520;15.106;2023-05-02T08:25:51;22.73;;;8.38;;
54555;SDS011;57291;37.520;15.106;2023-05-02T08:28:18;17.25;;;8.15;;
54555;SDS011;57291;37.520;15.106;2023-05-02T08:30:45;19.10;;;8.73;;
54555;SDS011;57291;37.520;15.106;2023-05-02T08:33:13;15.95;;;8.68;;
54555;SDS011;57291;37.520;15.106;2023-05-02T08:35:43;20.40;;;9.52;;
54555;SDS011;57291;37.520;15.106;2023-05-02T08:38:10;16.23;;;9.68;;
54555;SDS011;57291;37.520;15.106;2023-05-02T08:40:37;19.48;;;9.20;;
54555;SDS011;57291;37.520;15.106;2023-05-02T08:43:09;20.08;;;8.98;;
54555;SDS011;57291;37.520;15.106;2023-05-02T08:45:39;18.60;;;8.90;;
54555;SDS011;57291;37.520;15.106;2023-05-02T08:48:11;16.02;;;8.85;;
54555;SDS011;57291;37.520;15.106;2023-05-02T08:50:41;18.23;;;9.10;;
54555;SDS011;57291;37.520;15.106;2023-05-02T08:53:12;21.63;;;10.50;;
54555;SDS011;57291;37.520;15.106;2023-05-02T08:55:40;24.27;;;10.50;;
54555;SDS011;57291;37.520;15.106;2023-05-02T08:58:09;18.95;;;9.98;;
54555;SDS011;57291;37.520;15.106;2023-05-02T09:00:39;19.48;;;9.85;;
54555;SDS011;57291;37.520;15.106;2023-05-02T09:05:51;20.77;;;11.00;;
54555;SDS011;57291;37.520;15.106;2023-05-02T09:08:22;22.90;;;10.70;;
54555;SDS011;57291;37.520;15.106;2023-05-02T09:10:50;18.17;;;9.75;;
54555;SDS011;57291;37.520;15.106;2023-05-02T09:13:27;18.80;;;8.73;;
54555;SDS011;57291;37.520;15.106;2023-05-02T09:21:13;28.15;;;9.75;;
54555;SDS011;57291;37.520;15.106;2023-05-02T09:23:48;23.45;;;9.52;;
54555;SDS011;57291;37.520;15.106;2023-05-02T09:26:20;23.10;;;8.88;;
54555;SDS011;57291;37.520;15.106;2023-05-02T09:29:02;20.38;;;8.45;;
54555;SDS011;57291;37.520;15.106;2023-05-02T09:31:32;17.33;;;7.47;;
54555;SDS011;57291;37.520;15.106;2023-05-02T09:34:08;18.77;;;7.72;;
54555;SDS011;57291;37.520;15.106;2023-05-02T09:39:09;14.75;;;7.35;;
54555;SDS011;57291;37.520;15.106;2023-05-02T09:41:46;15.93;;;7.03;;
54555;SDS011;57291;37.520;15.106;2023-05-02T09:44:17;21.27;;;7.25;;
54555;SDS011;57291;37.520;15.106;2023-05-02T09:46:48;17.02;;;7.40;;
54555;SDS011;57291;37.520;15.106;2023-05-02T09:49:41;17.05;;;7.00;;
54555;SDS011;57291;37.520;15.106;2023-05-02T09:52:13;14.70;;;7.15;;
54555;SDS011;57291;37.520;15.106;2023-05-02T09:54:41;23.00;;;8.95;;
54555;SDS011;57291;37.520;15.106;2023-05-02T09:57:13;18.45;;;7.55;;
54555;SDS011;57291;37.520;15.106;2023-05-02T09:59:40;18.77;;;8.48;;
54555;SDS011;57291;37.520;15.106;2023-05-02T10:02:18;20.38;;;8.95;;
54555;SDS011;57291;37.520;15.106;2023-05-02T10:04:47;18.92;;;8.32;;
54555;SDS011;57291;37.520;15.106;2023-05-02T10:07:18;18.88;;;8.23;;
54555;SDS011;57291;37.520;15.106;2023-05-02T10:09:47;16.42;;;8.48;;
54555;SDS011;57291;37.520;15.106;2023-05-02T10:12:19;23.50;;;9.07;;
54555;SDS011;57291;37.520;15.106;2023-05-02T10:14:52;18.63;;;9.48;;
54555;SDS011;57291;37.520;15.106;2023-05-02T10:17:47;17.92;;;8.50;;
54555;SDS011;57291;37.520;15.106;2023-05-02T10:20:19;24.02;;;8.75;;
54555;SDS011;57291;37.520;15.106;2023-05-02T10:22:48;21.90;;;9.30;;
54555;SDS011;57291;37.520;15.106;2023-05-02T10:25:17;24.27;;;9.93;;
54555;SDS011;57291;37.520;15.106;2023-05-02T10:27:44;24.13;;;10.43;;
54555;SDS011;57291;37.520;15.106;2023-05-02T10:30:12;20.33;;;9.07;;
54555;SDS011;57291;37.520;15.106;2023-05-02T10:32:40;18.20;;;8.45;;
54555;SDS011;57291;37.520;15.106;2023-05-02T10:35:09;18.90;;;8.52;;
54555;SDS011;57291;37.520;15.106;2023-05-02T10:37:37;29.10;;;9.50;;
54555;SDS011;57291;37.520;15.106;2023-05-02T10:40:09;23.48;;;10.00;;
54555;SDS011;57291;37.520;15.106;2023-05-02T10:42:39;28.05;;;11.23;;
54555;SDS011;57291;37.520;15.106;2023-05-02T10:45:12;28.98;;;13.13;;
54555;SDS011;57291;37.520;15.106;2023-05-02T10:48:15;21.98;;;10.88;;
54555;SDS011;57291;37.520;15.106;2023-05-02T10:50:49;28.40;;;12.77;;
54555;SDS011;57291;37.520;15.106;2023-05-02T10:53:28;25.95;;;11.88;;
54555;SDS011;57291;37.520;15.106;2023-05-02T10:58:48;30.50;;;13.32;;
54555;SDS011;57291;37.520;15.106;2023-05-02T11:04:02;31.40;;;15.45;;
54555;SDS011;57291;37.520;15.106;2023-05-02T11:06:34;34.40;;;16.48;;
54555;SDS011;57291;37.520;15.106;2023-05-02T11:09:29;35.55;;;16.33;;
54555;SDS011;57291;37.520;15.106;2023-05-02T11:11:57;41.47;;;16.88;;
54555;SDS011;57291;37.520;15.106;2023-05-02T11:19:26;33.45;;;14.88;;
54555;SDS011;57291;37.520;15.106;2023-05-02T11:22:42;35.60;;;16.77;;
54555;SDS011;57291;37.520;15.106;2023-05-02T11:24:47;33.45;;;15.70;;
54555;SDS011;57291;37.520;15.106;2023-05-02T11:32:23;36.38;;;16.88;;
54555;SDS011;57291;37.520;15.106;2023-05-02T11:34:53;41.80;;;15.90;;
54555;SDS011;57291;37.520;15.106;2023-05-02T11:37:21;36.92;;;15.43;;
54555;SDS011;57291;37.520;15.106;2023-05-02T11:39:48;36.63;;;15.55;;
54555;SDS011;57291;37.520;15.106;2023-05-02T11:42:29;26.80;;;11.57;;
54555;SDS011;57291;37.520;15.106;2023-05-02T11:44:58;26.48;;;11.52;;
54555;SDS011;57291;37.520;15.106;2023-05-02T11:47:27;27.85;;;11.75;;
54555;SDS011;57291;37.520;15.106;2023-05-02T11:49:55;25.20;;;13.20;;
54555;SDS011;57291;37.520;15.106;2023-05-02T11:52:23;31.58;;;13.73;;
54555;SDS011;57291;37.520;15.106;2023-05-02T11:54:53;32.20;;;12.75;;
54555;SDS011;57291;37.520;15.106;2023-05-02T11:57:22;23.70;;;12.65;;
54555;SDS011;57291;37.520;15.106;2023-05-02T12:02:34;34.83;;;16.40;;
54555;SDS011;57291;37.520;15.106;2023-05-02T12:05:05;16.17;;;8.02;;
54555;SDS011;57291;37.520;15.106;2023-05-02T12:07:37;13.13;;;3.10;;
54555;SDS011;57291;37.520;15.106;2023-05-02T12:10:05;6.88;;;2.63;;
54555;SDS011;57291;37.520;15.106;2023-05-02T12:12:34;5.25;;;2.03;;
54555;SDS011;57291;37.520;15.106;2023-05-02T12:15:05;9.30;;;2.05;;
54555;SDS011;57291;37.520;15.106;2023-05-02T12:17:36;7.18;;;2.03;;
54555;SDS011;57291;37.520;15.106;2023-05-02T12:20:06;6.03;;;1.50;;
54555;SDS011;57291;37.520;15.106;2023-05-02T12:22:38;6.18;;;1.95;;
54555;SDS011;57291;37.520;15.106;2023-05-02T12:25:05;5.10;;;1.52;;
54555;SDS011;57291;37.520;15.106;2023-05-02T12:27:33;3.85;;;1.50;;
54555;SDS011;57291;37.520;15.106;2023-05-02T12:30:00;3.90;;;1.15;;
54555;SDS011;57291;37.520;15.106;2023-05-02T12:32:29;5.57;;;1.50;;
54555;SDS011;57291;37.520;15.106;2023-05-02T12:35:01;2.90;;;1.27;;
54555;SDS011;57291;37.520;15.106;2023-05-02T12:37:29;3.42;;;1.17;;
54555;SDS011;57291;37.520;15.106;2023-05-02T12:39:56;2.70;;;1.13;;
54555;SDS011;57291;37.520;15.106;2023-05-02T12:42:24;3.25;;;1.70;;
54555;SDS011;57291;37.520;15.106;2023-05-02T12:44:52;5.10;;;1.42;;
54555;SDS011;57291;37.520;15.106;2023-05-02T12:47:19;3.88;;;1.60;;
54555;SDS011;57291;37.520;15.106;2023-05-02T12:49:55;7.93;;;1.60;;
54555;SDS011;57291;37.520;15.106;2023-05-02T12:57:45;4.55;;;2.00;;
54555;SDS011;57291;37.520;15.106;2023-05-02T13:00:15;11.73;;;2.17;;
54555;SDS011;57291;37.520;15.106;2023-05-02T13:02:43;21.30;;;2.67;;
54555;SDS011;57291;37.520;15.106;2023-05-02T13:05:14;7.90;;;2.55;;
54555;SDS011;57291;37.520;15.106;2023-05-02T13:07:42;14.40;;;2.22;;
54555;SDS011;57291;37.520;15.106;2023-05-02T13:10:09;8.82;;;2.00;;
54555;SDS011;57291;37.520;15.106;2023-05-02T13:12:38;11.02;;;2.40;;
54555;SDS011;57291;37.520;15.106;2023-05-02T13:15:06;10.63;;;2.40;;
54555;SDS011;57291;37.520;15.106;2023-05-02T13:17:34;7.22;;;1.88;;
54555;SDS011;57291;37.520;15.106;2023-05-02T13:20:01;6.53;;;2.00;;
54555;SDS011;57291;37.520;15.106;2023-05-02T13:22:29;7.47;;;3.10;;
54555;SDS011;57291;37.520;15.106;2023-05-02T13:24:56;5.03;;;2.20;;
54555;SDS011;57291;37.520;15.106;2023-05-02T13:27:23;7.68;;;2.83;;
54555;SDS011;57291;37.520;15.106;2023-05-02T13:29:51;8.80;;;2.75;;
54555;SDS011;57291;37.520;15.106;2023-05-02T13:32:18;2.58;;;1.25;;
54555;SDS011;57291;37.520;15.106;2023-05-02T13:34:46;2.28;;;1.35;;
54555;SDS011;57291;37.520;15.106;2023-05-02T13:37:13;2.20;;;1.20;;
54555;SDS011;57291;37.520;15.106;2023-05-02T13:39:41;4.25;;;1.35;;
54555;SDS011;57291;37.520;15.106;2023-05-02T13:42:08;3.22;;;1.30;;
54555;SDS011;57291;37.520;15.106;2023-05-02T13:44:35;23.23;;;4.28;;
54555;SDS011;57291;37.520;15.106;2023-05-02T13:47:02;14.35;;;3.63;;
54555;SDS011;57291;37.520;15.106;2023-05-02T13:49:29;12.23;;;2.22;;
54555;SDS011;57291;37.520;15.106;2023-05-02T13:51:57;9.73;;;2.15;;
54555;SDS011;57291;37.520;15.106;2023-05-02T13:54:24;10.90;;;2.50;;
54555;SDS011;57291;37.520;15.106;2023-05-02T13:56:51;8.38;;;2.88;;
54555;SDS011;57291;37.520;15.106;2023-05-02T13:59:18;11.98;;;2.38;;
54555;SDS011;57291;37.520;15.106;2023-05-02T14:01:45;10.40;;;2.17;;
54555;SDS011;57291;37.520;15.106;2023-05-02T14:04:13;9.77;;;1.63;;
54555;SDS011;57291;37.520;15.106;2023-05-02T14:06:40;11.05;;;1.92;;
54555;SDS011;57291;37.520;15.106;2023-05-02T14:09:07;8.00;;;1.98;;
54555;SDS011;57291;37.520;15.106;2023-05-02T14:11:35;14.48;;;2.47;;
54555;SDS011;57291;37.520;15.106;2023-05-02T14:14:02;8.35;;;2.15;;
54555;SDS011;57291;37.520;15.106;2023-05-02T14:16:29;14.82;;;2.63;;
54555;SDS011;57291;37.520;15.106;2023-05-02T14:18:56;14.35;;;3.20;;
54555;SDS011;57291;37.520;15.106;2023-05-02T14:21:24;14.73;;;3.08;;
54555;SDS011;57291;37.520;15.106;2023-05-02T14:23:51;21.48;;;3.40;;
54555;SDS011;57291;37.520;15.106;2023-05-02T14:26:18;20.05;;;2.55;;
54555;SDS011;57291;37.520;15.106;2023-05-02T14:28:45;19.67;;;3.70;;
54555;SDS011;57291;37.520;15.106;2023-05-02T14:31:13;20.38;;;2.78;;
54555;SDS011;57291;37.520;15.106;2023-05-02T14:33:41;21.35;;;3.90;;
54555;SDS011;57291;37.520;15.106;2023-05-02T14:36:09;16.42;;;3.55;;
54555;SDS011;57291;37.520;15.106;2023-05-02T14:38:36;26.88;;;3.53;;
54555;SDS011;57291;37.520;15.106;2023-05-02T14:41:03;22.50;;;3.03;;
54555;SDS011;57291;37.520;15.106;2023-05-02T14:43:31;18.92;;;3.60;;
54555;SDS011;57291;37.520;15.106;2023-05-02T14:45:58;16.88;;;3.22;;
54555;SDS011;57291;37.520;15.106;2023-05-02T14:48:25;32.20;;;4.97;;
54555;SDS011;57291;37.520;15.106;2023-05-02T14:50:52;23.50;;;5.57;;
54555;SDS011;57291;37.520;15.106;2023-05-02T14:53:19;28.80;;;3.83;;
54555;SDS011;57291;37.520;15.106;2023-05-02T14:55:47;24.92;;;3.10;;
54555;SDS011;57291;37.520;15.106;2023-05-02T14:58:14;18.52;;;3.20;;
54555;SDS011;57291;37.520;15.106;2023-05-02T15:00:46;19.33;;;4.05;;
54555;SDS011;57291;37.520;15.106;2023-05-02T15:03:13;31.65;;;3.92;;
54555;SDS011;57291;37.520;15.106;2023-05-02T15:05:41;22.15;;;3.38;;
54555;SDS011;57291;37.520;15.106;2023-05-02T15:08:08;17.45;;;2.58;;
54555;SDS011;57291;37.520;15.106;2023-05-02T15:10:36;16.00;;;2.78;;
54555;SDS011;57291;37.520;15.106;2023-05-02T15:13:03;6.70;;;1.90;;
54555;SDS011;57291;37.520;15.106;2023-05-02T15:15:31;11.20;;;2.38;;
54555;SDS011;57291;37.520;15.106;2023-05-02T15:17:58;14.82;;;2.42;;
54555;SDS011;57291;37.520;15.106;2023-05-02T15:20:25;13.55;;;1.85;;
54555;SDS011;57291;37.520;15.106;2023-05-02T15:22:53;21.85;;;3.15;;
54555;SDS011;57291;37.520;15.106;2023-05-02T15:25:20;23.70;;;3.72;;